sensor_id;sensor_type;location;lat;lon;timestamp;P1;durP1;ratioP1;P2;durP2;ratioP2
2259;SDS011;333;48.800;9.530;2023-05-10T00:01:36;2.23;;;1.97;;
2259;SDS011;333;48.800;9.530;2023-05-10T00:04:03;2.23;;;2.10;;
2259;SDS011;333;48.800;9.530;2023-05-10T00:06:30;2.00;;;1.90;;
2259;SDS011;333;48.800;9.530;2023-05-10T00:08:57;1.70;;;1.60;;
2259;SDS011;333;48.800;9.530;2023-05-10T00:11:26;2.17;;;2.07;;
2259;SDS011;333;48.800;9.530;2023-05-10T00:13:53;2.47;;;1.90;;
2259;SDS011;333;48.800;9.530;2023-05-10T00:16:20;2.33;;;2.23;;
2259;SDS011;333;48.800;9.530;2023-05-10T00:18:47;2.20;;;1.90;;
2259;SDS011;333;48.800;9.530;2023-05-10T00:21:14;2.13;;;1.97;;
2259;SDS011;333;48.800;9.530;2023-05-10T00:23:41;2.63;;;2.20;;
2259;SDS011;333;48.800;9.530;2023-05-10T00:26:08;1.63;;;1.53;;
2259;SDS011;333;48.800;9.530;2023-05-10T00:28:36;2.43;;;2.03;;
2259;SDS011;333;48.800;9.530;2023-05-10T00:31:04;2.47;;;2.27;;
2259;SDS011;333;48.800;9.530;2023-05-10T00:33:31;2.07;;;1.97;;
2259;SDS011;333;48.800;9.530;2023-05-10T00:35:57;3.27;;;2.43;;
2259;SDS011;333;48.800;9.530;2023-05-10T00:38:24;1.80;;;1.47;;
2259;SDS011;333;48.800;9.530;2023-05-10T00:40:51;3.20;;;2.00;;
2259;SDS011;333;48.800;9.530;2023-05-10T00:43:18;2.17;;;1.07;;
2259;SDS011;333;48.800;9.530;2023-05-10T00:45:47;1.20;;;1.10;;
2259;SDS011;333;48.800;9.530;2023-05-10T00:48:14;1.07;;;0.90;;
2259;SDS011;333;48.800;9.530;2023-05-10T00:50:41;1.30;;;1.20;;
2259;SDS011;333;48.800;9.530;2023-05-10T00:53:09;1.20;;;1.00;;
2259;SDS011;333;48.800;9.530;2023-05-10T00:55:37;1.80;;;1.20;;
2259;SDS011;333;48.800;9.530;2023-05-10T00:58:04;0.80;;;0.80;;
2259;SDS011;333;48.800;9.530;2023-05-10T01:00:32;2.50;;;1.07;;
2259;SDS011;333;48.800;9.530;2023-05-10T01:03:01;1.43;;;0.87;;
2259;SDS011;333;48.800;9.530;2023-05-10T01:05:29;0.80;;;0.80;;
2259;SDS011;333;48.800;9.530;2023-05-10T01:07:56;0.73;;;0.73;;
2259;SDS011;333;48.800;9.530;2023-05-10T01:10:23;0.90;;;0.80;;
2259;SDS011;333;48.800;9.530;2023-05-10T01:12:51;0.60;;;0.60;;
2259;SDS011;333;48.800;9.530;2023-05-10T01:15:18;1.10;;;1.00;;
2259;SDS011;333;48.800;9.530;2023-05-10T01:17:47;2.03;;;1.00;;
2259;SDS011;333;48.800;9.530;2023-05-10T01:20:16;1.47;;;0.97;;
2259;SDS011;333;48.800;9.530;2023-05-10T01:22:52;0.90;;;0.80;;
2259;SDS011;333;48.800;9.530;2023-05-10T01:28:55;1.07;;;0.83;;
2259;SDS011;333;48.800;9.530;2023-05-10T01:31:59;0.70;;;0.70;;
2259;SDS011;333;48.800;9.530;2023-05-10T01:34:39;1.80;;;0.87;;
2259;SDS011;333;48.800;9.530;2023-05-10T01:37:13;1.80;;;0.50;;
2259;SDS011;333;48.800;9.530;2023-05-10T01:39:47;0.60;;;0.60;;
2259;SDS011;333;48.800;9.530;2023-05-10T01:42:20;0.80;;;0.60;;
2259;SDS011;333;48.800;9.530;2023-05-10T01:44:52;0.43;;;0.40;;
2259;SDS011;333;48.800;9.530;2023-05-10T01:47:27;1.70;;;0.50;;
2259;SDS011;333;48.800;9.530;2023-05-10T01:50:01;0.63;;;0.60;;
2259;SDS011;333;48.800;9.530;2023-05-10T01:52:32;0.67;;;0.60;;
2259;SDS011;333;48.800;9.530;2023-05-10T01:55:04;0.63;;;0.63;;
2259;SDS011;333;48.800;9.530;2023-05-10T01:57:34;1.90;;;0.80;;
2259;SDS011;333;48.800;9.530;2023-05-10T02:00:04;0.57;;;0.50;;
2259;SDS011;333;48.800;9.530;2023-05-10T02:02:38;0.83;;;0.80;;
2259;SDS011;333;48.800;9.530;2023-05-10T02:05:08;1.43;;;0.60;;
2259;SDS011;333;48.800;9.530;2023-05-10T02:07:38;0.63;;;0.60;;
2259;SDS011;333;48.800;9.530;2023-05-10T02:10:06;0.63;;;0.63;;
2259;SDS011;333;48.800;9.530;2023-05-10T02:12:36;4.27;;;1.10;;
2259;SDS011;333;48.800;9.530;2023-05-10T02:15:05;1.23;;;0.77;;
2259;SDS011;333;48.800;9.530;2023-05-10T02:17:35;0.70;;;0.70;;
2259;SDS011;333;48.800;9.530;2023-05-10T02:20:06;1.00;;;0.90;;
2259;SDS011;333;48.800;9.530;2023-05-10T02:22:33;2.00;;;1.47;;
2259;SDS011;333;48.800;9.530;2023-05-10T02:25:03;0.97;;;0.93;;
2259;SDS011;333;48.800;9.530;2023-05-10T02:27:32;1.03;;;1.00;;
2259;SDS011;333;48.800;9.530;2023-05-10T02:30:01;0.90;;;0.90;;
2259;SDS011;333;48.800;9.530;2023-05-10T02:32:28;0.90;;;0.73;;
2259;SDS011;333;48.800;9.530;2023-05-10T02:34:57;0.97;;;0.97;;
2259;SDS011;333;48.800;9.530;2023-05-10T02:37:28;1.23;;;0.90;;
2259;SDS011;333;48.800;9.530;2023-05-10T02:39:55;1.53;;;0.97;;
2259;SDS011;333;48.800;9.530;2023-05-10T02:42:23;1.23;;;1.13;;
2259;SDS011;333;48.800;9.530;2023-05-10T02:44:53;1.20;;;1.10;;
2259;SDS011;333;48.800;9.530;2023-05-10T02:47:25;1.23;;;1.13;;
2259;SDS011;333;48.800;9.530;2023-05-10T02:49:53;1.37;;;1.10;;
2259;SDS011;333;48.800;9.530;2023-05-10T02:52:23;0.80;;;0.80;;
2259;SDS011;333;48.800;9.530;2023-05-10T02:54:55;1.10;;;1.07;;
2259;SDS011;333;48.800;9.530;2023-05-10T02:57:26;1.17;;;1.07;;
2259;SDS011;333;48.800;9.530;2023-05-10T02:59:56;1.47;;;1.37;;
2259;SDS011;333;48.800;9.530;2023-05-10T03:02:23;1.70;;;1.60;;
2259;SDS011;333;48.800;9.530;2023-05-10T03:04:51;1.50;;;1.40;;
2259;SDS011;333;48.800;9.530;2023-05-10T03:07:18;0.80;;;0.80;;
2259;SDS011;333;48.800;9.530;2023-05-10T03:09:48;1.80;;;1.10;;
2259;SDS011;333;48.800;9.530;2023-05-10T03:12:18;1.23;;;1.13;;
2259;SDS011;333;48.800;9.530;2023-05-10T03:14:52;1.10;;;1.03;;
2259;SDS011;333;48.800;9.530;2023-05-10T03:17:31;1.30;;;1.20;;
2259;SDS011;333;48.800;9.530;2023-05-10T03:20:06;1.10;;;1.10;;
2259;SDS011;333;48.800;9.530;2023-05-10T03:22:37;1.30;;;1.20;;
2259;SDS011;333;48.800;9.530;2023-05-10T03:25:09;2.70;;;1.00;;
2259;SDS011;333;48.800;9.530;2023-05-10T03:27:39;1.40;;;1.30;;
2259;SDS011;333;48.800;9.530;2023-05-10T03:30:08;1.07;;;0.77;;
2259;SDS011;333;48.800;9.530;2023-05-10T03:32:43;1.30;;;1.20;;
2259;SDS011;333;48.800;9.530;2023-05-10T03:35:11;1.23;;;1.13;;
2259;SDS011;333;48.800;9.530;2023-05-10T03:37:39;1.40;;;1.30;;
2259;SDS011;333;48.800;9.530;2023-05-10T03:40:06;1.20;;;1.20;;
2259;SDS011;333;48.800;9.530;2023-05-10T03:42:36;1.73;;;1.20;;
2259;SDS011;333;48.800;9.530;2023-05-10T03:45:03;1.23;;;1.13;;
2259;SDS011;333;48.800;9.530;2023-05-10T03:47:32;4.27;;;1.27;;
2259;SDS011;333;48.800;9.530;2023-05-10T03:50:00;1.93;;;1.40;;
2259;SDS011;333;48.800;9.530;2023-05-10T03:52:27;1.27;;;1.20;;
2259;SDS011;333;48.800;9.530;2023-05-10T03:54:54;1.30;;;1.20;;
2259;SDS011;333;48.800;9.530;2023-05-10T03:57:22;5.93;;;1.10;;
2259;SDS011;333;48.800;9.530;2023-05-10T03:59:49;1.03;;;1.03;;
2259;SDS011;333;48.800;9.530;2023-05-10T04:02:17;1.90;;;1.30;;
2259;SDS011;333;48.800;9.530;2023-05-10T04:04:44;1.17;;;1.10;;
2259;SDS011;333;48.800;9.530;2023-05-10T04:07:11;1.57;;;1.47;;
2259;SDS011;333;48.800;9.530;2023-05-10T04:09:38;1.73;;;1.60;;
2259;SDS011;333;48.800;9.530;2023-05-10T04:12:05;1.50;;;1.40;;
2259;SDS011;333;48.800;9.530;2023-05-10T04:14:33;1.63;;;1.53;;
2259;SDS011;333;48.800;9.530;2023-05-10T04:17:00;1.30;;;1.20;;
2259;SDS011;333;48.800;9.530;2023-05-10T04:19:29;1.60;;;1.50;;
2259;SDS011;333;48.800;9.530;2023-05-10T04:21:56;1.50;;;1.40;;
2259;SDS011;333;48.800;9.530;2023-05-10T04:24:23;2.20;;;1.50;;
2259;SDS011;333;48.800;9.530;2023-05-10T04:26:50;2.83;;;1.83;;
2259;SDS011;333;48.800;9.530;2023-05-10T04:29:17;3.27;;;1.73;;
2259;SDS011;333;48.800;9.530;2023-05-10T04:31:46;1.73;;;1.37;;
2259;SDS011;333;48.800;9.530;2023-05-10T04:34:13;1.83;;;1.73;;
2259;SDS011;333;48.800;9.530;2023-05-10T04:36:41;1.63;;;1.20;;
2259;SDS011;333;48.800;9.530;2023-05-10T04:39:08;1.40;;;1.30;;
2259;SDS011;333;48.800;9.530;2023-05-10T04:41:35;1.80;;;1.70;;
2259;SDS011;333;48.800;9.530;2023-05-10T04:44:04;1.67;;;1.57;;
2259;SDS011;333;48.800;9.530;2023-05-10T04:46:31;1.60;;;1.50;;
2259;SDS011;333;48.800;9.530;2023-05-10T04:49:00;2.03;;;1.90;;
2259;SDS011;333;48.800;9.530;2023-05-10T04:51:27;2.00;;;1.90;;
2259;SDS011;333;48.800;9.530;2023-05-10T04:53:54;1.63;;;1.53;;
2259;SDS011;333;48.800;9.530;2023-05-10T04:56:21;1.60;;;1.50;;
2259;SDS011;333;48.800;9.530;2023-05-10T04:58:48;1.80;;;1.70;;
2259;SDS011;333;48.800;9.530;2023-05-10T05:01:15;1.50;;;1.40;;
2259;SDS011;333;48.800;9.530;2023-05-10T05:03:42;1.33;;;1.23;;
2259;SDS011;333;48.800;9.530;2023-05-10T05:06:11;1.77;;;1.67;;
2259;SDS011;333;48.800;9.530;2023-05-10T05:08:38;1.70;;;1.27;;
2259;SDS011;333;48.800;9.530;2023-05-10T05:11:05;1.50;;;1.40;;
2259;SDS011;333;48.800;9.530;2023-05-10T05:13:31;2.43;;;1.37;;
2259;SDS011;333;48.800;9.530;2023-05-10T05:16:00;1.53;;;1.43;;
2259;SDS011;333;48.800;9.530;2023-05-10T05:18:27;2.80;;;1.57;;
2259;SDS011;333;48.800;9.530;2023-05-10T05:20:54;1.80;;;1.70;;
2259;SDS011;333;48.800;9.530;2023-05-10T05:23:23;1.17;;;1.10;;
2259;SDS011;333;48.800;9.530;2023-05-10T05:25:51;3.53;;;2.00;;
2259;SDS011;333;48.800;9.530;2023-05-10T05:28:18;1.80;;;1.70;;
2259;SDS011;333;48.800;9.530;2023-05-10T05:30:44;4.80;;;1.57;;
2259;SDS011;333;48.800;9.530;2023-05-10T05:33:12;1.90;;;1.80;;
2259;SDS011;333;48.800;9.530;2023-05-10T05:35:40;2.03;;;1.93;;
2259;SDS011;333;48.800;9.530;2023-05-10T05:38:08;2.83;;;2.27;;
2259;SDS011;333;48.800;9.530;2023-05-10T05:40:36;1.47;;;1.37;;
2259;SDS011;333;48.800;9.530;2023-05-10T05:43:03;1.60;;;1.50;;
2259;SDS011;333;48.800;9.530;2023-05-10T05:45:30;1.50;;;1.40;;
2259;SDS011;333;48.800;9.530;2023-05-10T05:47:57;1.90;;;1.50;;
2259;SDS011;333;48.800;9.530;2023-05-10T05:50:24;1.70;;;1.60;;
2259;SDS011;333;48.800;9.530;2023-05-10T05:52:51;4.77;;;1.60;;
2259;SDS011;333;48.800;9.530;2023-05-10T05:55:18;1.37;;;1.27;;
2259;SDS011;333;48.800;9.530;2023-05-10T05:57:47;1.63;;;1.53;;
2259;SDS011;333;48.800;9.530;2023-05-10T06:00:14;2.03;;;1.77;;
2259;SDS011;333;48.800;9.530;2023-05-10T06:02:41;1.67;;;1.57;;
2259;SDS011;333;48.800;9.530;2023-05-10T06:05:08;1.47;;;1.37;;
2259;SDS011;333;48.800;9.530;2023-05-10T06:07:35;2.10;;;1.40;;
2259;SDS011;333;48.800;9.530;2023-05-10T06:10:02;2.17;;;1.70;;
2259;SDS011;333;48.800;9.530;2023-05-10T06:12:30;1.63;;;1.53;;
2259;SDS011;333;48.800;9.530;2023-05-10T06:14:59;2.00;;;1.50;;
2259;SDS011;333;48.800;9.530;2023-05-10T06:17:26;2.00;;;1.50;;
2259;SDS011;333;48.800;9.530;2023-05-10T06:19:53;1.30;;;1.20;;
2259;SDS011;333;48.800;9.530;2023-05-10T06:22:20;1.10;;;1.00;;
2259;SDS011;333;48.800;9.530;2023-05-10T06:24:48;1.23;;;1.17;;
2259;SDS011;333;48.800;9.530;2023-05-10T06:27:15;2.10;;;1.30;;
2259;SDS011;333;48.800;9.530;2023-05-10T06:29:42;2.10;;;1.33;;
2259;SDS011;333;48.800;9.530;2023-05-10T06:32:10;1.43;;;1.10;;
2259;SDS011;333;48.800;9.530;2023-05-10T06:34:37;0.87;;;0.87;;
2259;SDS011;333;48.800;9.530;2023-05-10T06:37:04;1.43;;;1.13;;
2259;SDS011;333;48.800;9.530;2023-05-10T06:39:31;2.50;;;1.50;;
2259;SDS011;333;48.800;9.530;2023-05-10T06:41:59;3.27;;;1.50;;
2259;SDS011;333;48.800;9.530;2023-05-10T06:44:26;1.63;;;1.40;;
2259;SDS011;333;48.800;9.530;2023-05-10T06:46:54;2.43;;;1.50;;
2259;SDS011;333;48.800;9.530;2023-05-10T06:49:22;2.63;;;2.50;;
2259;SDS011;333;48.800;9.530;2023-05-10T06:51:49;2.23;;;1.90;;
2259;SDS011;333;48.800;9.530;2023-05-10T06:54:16;1.60;;;1.50;;
2259;SDS011;333;48.800;9.530;2023-05-10T06:56:43;2.80;;;1.50;;
2259;SDS011;333;48.800;9.530;2023-05-10T06:59:10;1.63;;;1.40;;
2259;SDS011;333;48.800;9.530;2023-05-10T07:01:38;1.67;;;1.53;;
2259;SDS011;333;48.800;9.530;2023-05-10T07:04:05;1.27;;;1.20;;
2259;SDS011;333;48.800;9.530;2023-05-10T07:06:34;1.93;;;1.70;;
2259;SDS011;333;48.800;9.530;2023-05-10T07:09:01;1.80;;;1.70;;
2259;SDS011;333;48.800;9.530;2023-05-10T07:11:28;1.77;;;1.67;;
2259;SDS011;333;48.800;9.530;2023-05-10T07:13:55;1.90;;;1.80;;
2259;SDS011;333;48.800;9.530;2023-05-10T07:16:22;1.80;;;1.60;;
2259;SDS011;333;48.800;9.530;2023-05-10T07:18:49;1.50;;;1.40;;
2259;SDS011;333;48.800;9.530;2023-05-10T07:21:18;1.50;;;1.40;;
2259;SDS011;333;48.800;9.530;2023-05-10T07:23:46;1.97;;;1.20;;
2259;SDS011;333;48.800;9.530;2023-05-10T07:26:13;2.13;;;1.30;;
2259;SDS011;333;48.800;9.530;2023-05-10T07:28:40;3.03;;;1.50;;
2259;SDS011;333;48.800;9.530;2023-05-10T07:31:07;6.23;;;1.73;;
2259;SDS011;333;48.800;9.530;2023-05-10T07:33:34;2.53;;;1.57;;
2259;SDS011;333;48.800;9.530;2023-05-10T07:36:01;1.40;;;1.30;;
2259;SDS011;333;48.800;9.530;2023-05-10T07:38:29;1.60;;;1.50;;
2259;SDS011;333;48.800;9.530;2023-05-10T07:40:57;2.13;;;1.93;;
2259;SDS011;333;48.800;9.530;2023-05-10T07:43:24;3.17;;;1.43;;
2259;SDS011;333;48.800;9.530;2023-05-10T07:45:51;1.70;;;1.10;;
2259;SDS011;333;48.800;9.530;2023-05-10T07:48:18;1.10;;;1.10;;
2259;SDS011;333;48.800;9.530;2023-05-10T07:50:45;3.37;;;1.30;;
2259;SDS011;333;48.800;9.530;2023-05-10T07:53:12;1.40;;;1.27;;
2259;SDS011;333;48.800;9.530;2023-05-10T07:55:39;2.17;;;1.20;;
2259;SDS011;333;48.800;9.530;2023-05-10T07:58:08;7.03;;;2.37;;
2259;SDS011;333;48.800;9.530;2023-05-10T08:00:35;1.50;;;1.23;;
2259;SDS011;333;48.800;9.530;2023-05-10T08:03:04;1.00;;;0.90;;
2259;SDS011;333;48.800;9.530;2023-05-10T08:05:31;0.73;;;0.73;;
2259;SDS011;333;48.800;9.530;2023-05-10T08:07:58;1.13;;;1.10;;
2259;SDS011;333;48.800;9.530;2023-05-10T08:10:25;1.30;;;1.20;;
2259;SDS011;333;48.800;9.530;2023-05-10T08:12:52;1.50;;;1.30;;
2259;SDS011;333;48.800;9.530;2023-05-10T08:15:20;1.33;;;1.20;;
2259;SDS011;333;48.800;9.530;2023-05-10T08:17:47;2.30;;;1.53;;
2259;SDS011;333;48.800;9.530;2023-05-10T08:20:14;2.00;;;1.50;;
2259;SDS011;333;48.800;9.530;2023-05-10T08:22:44;1.57;;;1.47;;
2259;SDS011;333;48.800;9.530;2023-05-10T08:25:11;1.43;;;1.33;;
2259;SDS011;333;48.800;9.530;2023-05-10T08:27:38;1.80;;;1.40;;
2259;SDS011;333;48.800;9.530;2023-05-10T08:30:05;1.53;;;1.43;;
2259;SDS011;333;48.800;9.530;2023-05-10T08:32:35;4.20;;;1.40;;
2259;SDS011;333;48.800;9.530;2023-05-10T08:35:03;1.43;;;1.33;;
2259;SDS011;333;48.800;9.530;2023-05-10T08:37:30;1.20;;;1.10;;
2259;SDS011;333;48.800;9.530;2023-05-10T08:39:58;2.13;;;1.13;;
2259;SDS011;333;48.800;9.530;2023-05-10T08:42:25;1.37;;;1.00;;
2259;SDS011;333;48.800;9.530;2023-05-10T08:44:56;1.20;;;1.10;;
2259;SDS011;333;48.800;9.530;2023-05-10T08:47:23;1.37;;;1.27;;
2259;SDS011;333;48.800;9.530;2023-05-10T08:49:53;5.23;;;1.57;;
2259;SDS011;333;48.800;9.530;2023-05-10T08:52:21;1.60;;;1.50;;
2259;SDS011;333;48.800;9.530;2023-05-10T08:54:51;1.80;;;0.97;;
2259;SDS011;333;48.800;9.530;2023-05-10T08:57:18;4.70;;;2.50;;
2259;SDS011;333;48.800;9.530;2023-05-10T08:59:46;3.17;;;1.33;;
2259;SDS011;333;48.800;9.530;2023-05-10T09:02:13;4.90;;;1.70;;
2259;SDS011;333;48.800;9.530;2023-05-10T09:04:40;2.20;;;1.20;;
2259;SDS011;333;48.800;9.530;2023-05-10T09:07:09;2.50;;;1.20;;
2259;SDS011;333;48.800;9.530;2023-05-10T09:09:37;1.77;;;1.67;;
2259;SDS011;333;48.800;9.530;2023-05-10T09:12:04;2.13;;;1.30;;
2259;SDS011;333;48.800;9.530;2023-05-10T09:14:32;1.20;;;1.10;;
2259;SDS011;333;48.800;9.530;2023-05-10T09:17:01;2.00;;;1.30;;
2259;SDS011;333;48.800;9.530;2023-05-10T09:19:29;1.50;;;1.40;;
2259;SDS011;333;48.800;9.530;2023-05-10T09:21:56;4.43;;;1.47;;
2259;SDS011;333;48.800;9.530;2023-05-10T09:24:26;3.30;;;1.20;;
2259;SDS011;333;48.800;9.530;2023-05-10T09:26:56;1.17;;;0.90;;
2259;SDS011;333;48.800;9.530;2023-05-10T09:29:23;1.50;;;1.40;;
2259;SDS011;333;48.800;9.530;2023-05-10T09:31:51;1.17;;;1.07;;
2259;SDS011;333;48.800;9.530;2023-05-10T09:34:20;1.30;;;1.20;;
2259;SDS011;333;48.800;9.530;2023-05-10T09:36:51;1.53;;;1.23;;
2259;SDS011;333;48.800;9.530;2023-05-10T09:39:31;1.10;;;0.80;;
2259;SDS011;333;48.800;9.530;2023-05-10T09:41:59;1.10;;;1.00;;
2259;SDS011;333;48.800;9.530;2023-05-10T09:44:28;2.50;;;1.40;;
2259;SDS011;333;48.800;9.530;2023-05-10T09:46:56;1.27;;;1.03;;
2259;SDS011;333;48.800;9.530;2023-05-10T09:49:23;1.07;;;0.70;;
2259;SDS011;333;48.800;9.530;2023-05-10T09:51:59;1.77;;;0.90;;
2259;SDS011;333;48.800;9.530;2023-05-10T09:54:27;0.90;;;0.53;;
2259;SDS011;333;48.800;9.530;2023-05-10T09:56:56;1.10;;;0.90;;
2259;SDS011;333;48.800;9.530;2023-05-10T09:59:24;1.00;;;0.87;;
2259;SDS011;333;48.800;9.530;2023-05-10T10:01:52;3.07;;;0.80;;
2259;SDS011;333;48.800;9.530;2023-05-10T10:04:21;1.33;;;1.20;;
2259;SDS011;333;48.800;9.530;2023-05-10T10:06:58;0.80;;;0.80;;
2259;SDS011;333;48.800;9.530;2023-05-10T10:09:26;1.77;;;1.03;;
2259;SDS011;333;48.800;9.530;2023-05-10T10:11:54;1.13;;;1.03;;
2259;SDS011;333;48.800;9.530;2023-05-10T10:14:23;1.10;;;0.70;;
2259;SDS011;333;48.800;9.530;2023-05-10T10:16:51;1.00;;;0.60;;
2259;SDS011;333;48.800;9.530;2023-05-10T10:19:18;1.27;;;0.70;;
2259;SDS011;333;48.800;9.530;2023-05-10T10:21:46;1.00;;;0.57;;
2259;SDS011;333;48.800;9.530;2023-05-10T10:24:13;0.70;;;0.50;;
2259;SDS011;333;48.800;9.530;2023-05-10T10:26:40;3.13;;;0.70;;
2259;SDS011;333;48.800;9.530;2023-05-10T10:29:10;0.80;;;0.70;;
2259;SDS011;333;48.800;9.530;2023-05-10T10:31:50;1.17;;;0.80;;
2259;SDS011;333;48.800;9.530;2023-05-10T10:34:25;1.10;;;1.00;;
2259;SDS011;333;48.800;9.530;2023-05-10T10:36:56;0.60;;;0.60;;
2259;SDS011;333;48.800;9.530;2023-05-10T10:39:24;0.90;;;0.77;;
2259;SDS011;333;48.800;9.530;2023-05-10T10:41:51;1.33;;;0.80;;
2259;SDS011;333;48.800;9.530;2023-05-10T10:50:02;1.00;;;0.90;;
2259;SDS011;333;48.800;9.530;2023-05-10T10:52:31;1.50;;;1.10;;
2259;SDS011;333;48.800;9.530;2023-05-10T10:55:00;3.13;;;0.80;;
2259;SDS011;333;48.800;9.530;2023-05-10T10:57:32;1.10;;;1.00;;
2259;SDS011;333;48.800;9.530;2023-05-10T11:02:52;1.20;;;0.90;;
2259;SDS011;333;48.800;9.530;2023-05-10T11:08:12;2.17;;;0.90;;
2259;SDS011;333;48.800;9.530;2023-05-10T11:10:48;1.43;;;0.60;;
2259;SDS011;333;48.800;9.530;2023-05-10T11:13:27;4.47;;;1.10;;
2259;SDS011;333;48.800;9.530;2023-05-10T11:15:55;0.90;;;0.90;;
2259;SDS011;333;48.800;9.530;2023-05-10T11:18:25;1.93;;;0.90;;
2259;SDS011;333;48.800;9.530;2023-05-10T11:20:55;0.93;;;0.87;;
2259;SDS011;333;48.800;9.530;2023-05-10T11:23:29;0.80;;;0.80;;
2259;SDS011;333;48.800;9.530;2023-05-10T11:25:57;2.80;;;0.80;;
2259;SDS011;333;48.800;9.530;2023-05-10T11:28:25;1.57;;;0.67;;
2259;SDS011;333;48.800;9.530;2023-05-10T11:30:53;0.70;;;0.70;;
2259;SDS011;333;48.800;9.530;2023-05-10T11:33:21;1.10;;;0.73;;
2259;SDS011;333;48.800;9.530;2023-05-10T11:35:50;0.90;;;0.90;;
2259;SDS011;333;48.800;9.530;2023-05-10T11:38:18;0.93;;;0.90;;
2259;SDS011;333;48.800;9.530;2023-05-10T11:40:45;0.70;;;0.60;;
2259;SDS011;333;48.800;9.530;2023-05-10T11:43:12;0.90;;;0.70;;
2259;SDS011;333;48.800;9.530;2023-05-10T11:45:40;0.70;;;0.70;;
2259;SDS011;333;48.800;9.530;2023-05-10T11:48:07;1.30;;;1.00;;
2259;SDS011;333;48.800;9.530;2023-05-10T11:50:34;1.03;;;0.93;;
2259;SDS011;333;48.800;9.530;2023-05-10T11:53:03;0.97;;;0.63;;
2259;SDS011;333;48.800;9.530;2023-05-10T11:55:33;0.67;;;0.67;;
2259;SDS011;333;48.800;9.530;2023-05-10T11:58:00;1.80;;;1.07;;
2259;SDS011;333;48.800;9.530;2023-05-10T12:00:28;0.77;;;0.63;;
2259;SDS011;333;48.800;9.530;2023-05-10T12:02:56;0.73;;;0.60;;
2259;SDS011;333;48.800;9.530;2023-05-10T12:05:23;1.20;;;1.10;;
2259;SDS011;333;48.800;9.530;2023-05-10T12:07:51;4.10;;;0.83;;
2259;SDS011;333;48.800;9.530;2023-05-10T12:10:24;1.37;;;0.87;;
2259;SDS011;333;48.800;9.530;2023-05-10T12:12:53;1.17;;;0.87;;
2259;SDS011;333;48.800;9.530;2023-05-10T12:15:20;2.03;;;0.90;;
2259;SDS011;333;48.800;9.530;2023-05-10T12:17:48;1.87;;;1.03;;
2259;SDS011;333;48.800;9.530;2023-05-10T12:20:17;1.50;;;0.80;;
2259;SDS011;333;48.800;9.530;2023-05-10T12:22:46;1.00;;;1.00;;
2259;SDS011;333;48.800;9.530;2023-05-10T12:25:13;1.07;;;0.97;;
2259;SDS011;333;48.800;9.530;2023-05-10T12:27:44;0.83;;;0.80;;
2259;SDS011;333;48.800;9.530;2023-05-10T12:30:18;1.53;;;0.80;;
2259;SDS011;333;48.800;9.530;2023-05-10T12:32:47;2.97;;;0.80;;
2259;SDS011;333;48.800;9.530;2023-05-10T12:35:14;1.40;;;1.00;;
2259;SDS011;333;48.800;9.530;2023-05-10T12:37:41;2.83;;;0.80;;
2259;SDS011;333;48.800;9.530;2023-05-10T12:40:09;1.47;;;0.90;;
2259;SDS011;333;48.800;9.530;2023-05-10T12:42:37;0.60;;;0.60;;
2259;SDS011;333;48.800;9.530;2023-05-10T12:45:07;1.77;;;0.83;;
2259;SDS011;333;48.800;9.530;2023-05-10T12:47:35;1.17;;;0.90;;
2259;SDS011;333;48.800;9.530;2023-05-10T12:50:02;2.30;;;0.70;;
2259;SDS011;333;48.800;9.530;2023-05-10T12:52:30;1.00;;;0.80;;
2259;SDS011;333;48.800;9.530;2023-05-10T12:54:58;1.90;;;1.20;;
2259;SDS011;333;48.800;9.530;2023-05-10T12:57:25;1.57;;;0.80;;
2259;SDS011;333;48.800;9.530;2023-05-10T12:59:54;3.50;;;1.20;;
2259;SDS011;333;48.800;9.530;2023-05-10T13:02:22;1.90;;;1.27;;
2259;SDS011;333;48.800;9.530;2023-05-10T13:04:50;7.80;;;1.87;;
2259;SDS011;333;48.800;9.530;2023-05-10T13:07:17;3.30;;;0.90;;
2259;SDS011;333;48.800;9.530;2023-05-10T13:09:44;1.67;;;1.57;;
2259;SDS011;333;48.800;9.530;2023-05-10T13:12:11;2.27;;;2.07;;
2259;SDS011;333;48.800;9.530;2023-05-10T13:14:38;2.80;;;1.60;;
2259;SDS011;333;48.800;9.530;2023-05-10T13:17:06;2.47;;;1.17;;
2259;SDS011;333;48.800;9.530;2023-05-10T13:19:35;0.90;;;0.90;;
2259;SDS011;333;48.800;9.530;2023-05-10T13:22:02;1.30;;;1.20;;
2259;SDS011;333;48.800;9.530;2023-05-10T13:24:29;3.83;;;1.20;;
2259;SDS011;333;48.800;9.530;2023-05-10T13:26:56;2.10;;;1.27;;
2259;SDS011;333;48.800;9.530;2023-05-10T13:29:23;1.63;;;1.53;;
2259;SDS011;333;48.800;9.530;2023-05-10T13:31:50;2.60;;;1.50;;
2259;SDS011;333;48.800;9.530;2023-05-10T13:34:18;1.47;;;1.37;;
2259;SDS011;333;48.800;9.530;2023-05-10T13:36:47;1.87;;;1.30;;
2259;SDS011;333;48.800;9.530;2023-05-10T13:39:14;1.07;;;1.00;;
2259;SDS011;333;48.800;9.530;2023-05-10T13:41:42;1.37;;;1.27;;
2259;SDS011;333;48.800;9.530;2023-05-10T13:44:09;1.90;;;1.23;;
2259;SDS011;333;48.800;9.530;2023-05-10T13:46:38;3.33;;;1.50;;
2259;SDS011;333;48.800;9.530;2023-05-10T13:49:05;1.67;;;1.07;;
2259;SDS011;333;48.800;9.530;2023-05-10T13:51:33;2.53;;;1.60;;
2259;SDS011;333;48.800;9.530;2023-05-10T13:54:02;1.20;;;1.00;;
2259;SDS011;333;48.800;9.530;2023-05-10T13:56:29;6.20;;;1.37;;
2259;SDS011;333;48.800;9.530;2023-05-10T13:58:56;2.67;;;1.83;;
2259;SDS011;333;48.800;9.530;2023-05-10T14:01:23;1.73;;;1.40;;
2259;SDS011;333;48.800;9.530;2023-05-10T14:03:50;1.20;;;1.10;;
2259;SDS011;333;48.800;9.530;2023-05-10T14:06:17;1.67;;;1.33;;
2259;SDS011;333;48.800;9.530;2023-05-10T14:08:44;1.53;;;1.23;;
2259;SDS011;333;48.800;9.530;2023-05-10T14:11:13;5.13;;;1.80;;
2259;SDS011;333;48.800;9.530;2023-05-10T14:13:40;3.17;;;2.13;;
2259;SDS011;333;48.800;9.530;2023-05-10T14:16:07;7.20;;;4.60;;
2259;SDS011;333;48.800;9.530;2023-05-10T14:18:35;3.83;;;3.50;;
2259;SDS011;333;48.800;9.530;2023-05-10T14:21:02;6.50;;;5.80;;
2259;SDS011;333;48.800;9.530;2023-05-10T14:23:30;3.20;;;2.90;;
2259;SDS011;333;48.800;9.530;2023-05-10T14:25:57;2.83;;;2.63;;
2259;SDS011;333;48.800;9.530;2023-05-10T14:28:26;6.70;;;5.73;;
2259;SDS011;333;48.800;9.530;2023-05-10T14:30:53;6.37;;;2.30;;
2259;SDS011;333;48.800;9.530;2023-05-10T14:33:20;2.30;;;1.60;;
2259;SDS011;333;48.800;9.530;2023-05-10T14:35:47;1.23;;;1.13;;
2259;SDS011;333;48.800;9.530;2023-05-10T14:38:14;5.63;;;1.67;;
2259;SDS011;333;48.800;9.530;2023-05-10T14:40:41;3.57;;;1.37;;
2259;SDS011;333;48.800;9.530;2023-05-10T14:43:09;1.90;;;1.57;;
2259;SDS011;333;48.800;9.530;2023-05-10T14:45:37;4.10;;;1.67;;
2259;SDS011;333;48.800;9.530;2023-05-10T14:48:04;2.33;;;1.53;;
2259;SDS011;333;48.800;9.530;2023-05-10T14:50:36;1.27;;;1.17;;
2259;SDS011;333;48.800;9.530;2023-05-10T14:53:03;1.73;;;1.43;;
2259;SDS011;333;48.800;9.530;2023-05-10T14:55:30;2.47;;;1.60;;
2259;SDS011;333;48.800;9.530;2023-05-10T14:57:57;1.50;;;1.10;;
2259;SDS011;333;48.800;9.530;2023-05-10T15:00:24;2.27;;;1.37;;
2259;SDS011;333;48.800;9.530;2023-05-10T15:02:53;1.57;;;1.23;;
2259;SDS011;333;48.800;9.530;2023-05-10T15:05:20;2.33;;;1.33;;
2259;SDS011;333;48.800;9.530;2023-05-10T15:07:47;1.70;;;1.10;;
2259;SDS011;333;48.800;9.530;2023-05-10T15:10:14;2.60;;;1.20;;
2259;SDS011;333;48.800;9.530;2023-05-10T15:12:41;1.47;;;1.30;;
2259;SDS011;333;48.800;9.530;2023-05-10T15:15:08;2.83;;;1.70;;
2259;SDS011;333;48.800;9.530;2023-05-10T15:17:35;2.13;;;1.40;;
2259;SDS011;333;48.800;9.530;2023-05-10T15:20:04;3.53;;;1.80;;
2259;SDS011;333;48.800;9.530;2023-05-10T15:22:32;2.07;;;1.27;;
2259;SDS011;333;48.800;9.530;2023-05-10T15:24:59;3.33;;;2.70;;
2259;SDS011;333;48.800;9.530;2023-05-10T15:27:26;2.67;;;1.80;;
2259;SDS011;333;48.800;9.530;2023-05-10T15:29:53;2.40;;;1.87;;
2259;SDS011;333;48.800;9.530;2023-05-10T15:32:20;2.00;;;0.90;;
2259;SDS011;333;48.800;9.530;2023-05-10T15:34:47;3.20;;;1.70;;
2259;SDS011;333;48.800;9.530;2023-05-10T15:37:16;3.27;;;1.27;;
2259;SDS011;333;48.800;9.530;2023-05-10T15:39:43;1.63;;;1.40;;
2259;SDS011;333;48.800;9.530;2023-05-10T15:42:11;1.53;;;1.30;;
2259;SDS011;333;48.800;9.530;2023-05-10T15:47:19;2.33;;;1.60;;
2259;SDS011;333;48.800;9.530;2023-05-10T15:49:46;1.97;;;1.63;;
2259;SDS011;333;48.800;9.530;2023-05-10T15:52:13;1.73;;;1.63;;
2259;SDS011;333;48.800;9.530;2023-05-10T15:54:42;1.93;;;1.27;;